createdAt,value
2018-08-30T00:02:21.025Z,15.88
2018-08-30T00:04:49.186Z,15.87
2018-08-30T00:07:17.471Z,15.79
2018-08-30T00:09:45.538Z,15.74
2018-08-30T00:12:13.621Z,15.73
2018-08-30T00:14:41.756Z,15.69
2018-08-30T00:17:09.745Z,15.69
2018-08-30T00:19:37.802Z,15.65
2018-08-30T00:22:05.820Z,15.60
2018-08-30T00:24:33.921Z,15.58
2018-08-30T00:27:02.014Z,15.52
2018-08-30T00:29:30.048Z,15.52
2018-08-30T00:31:58.120Z,15.50
2018-08-30T00:34:26.361Z,15.51
2018-08-30T00:36:54.385Z,15.46
2018-08-30T00:39:22.440Z,15.43
2018-08-30T00:41:50.579Z,15.41
2018-08-30T00:44:18.747Z,15.38
2018-08-30T00:46:46.968Z,15.37
2018-08-30T00:49:15.303Z,15.36
2018-08-30T00:51:43.304Z,15.33
2018-08-30T00:54:11.610Z,15.32
2018-08-30T00:56:39.661Z,15.34
2018-08-30T00:59:07.409Z,15.33
2018-08-30T01:01:35.611Z,15.34
2018-08-30T01:04:03.745Z,15.30
2018-08-30T01:06:31.766Z,15.24
2018-08-30T01:08:59.962Z,15.23
2018-08-30T01:11:28.118Z,15.20
2018-08-30T01:13:56.351Z,15.15
2018-08-30T01:16:24.448Z,15.08
2018-08-30T01:18:52.460Z,15.07
2018-08-30T01:21:20.472Z,15.09
2018-08-30T01:23:48.652Z,15.01
2018-08-30T01:26:16.752Z,14.97
2018-08-30T01:28:44.806Z,14.92
2018-08-30T01:31:12.991Z,14.95
2018-08-30T01:33:41.068Z,14.91
2018-08-30T01:36:09.284Z,14.98
2018-08-30T01:38:37.293Z,14.99
2018-08-30T01:41:05.548Z,14.92
2018-08-30T01:43:33.562Z,14.93
2018-08-30T01:46:01.595Z,14.89
2018-08-30T01:48:29.754Z,14.87
2018-08-30T01:50:57.915Z,14.84
2018-08-30T01:53:26.142Z,14.77
2018-08-30T01:55:54.149Z,14.76
2018-08-30T01:58:22.222Z,14.77
2018-08-30T02:00:50.259Z,14.73
2018-08-30T02:03:18.301Z,14.73
2018-08-30T02:05:46.369Z,14.71
2018-08-30T02:08:14.406Z,14.72
2018-08-30T02:10:42.542Z,14.70
2018-08-30T02:13:10.517Z,14.70
2018-08-30T02:15:38.537Z,14.69
2018-08-30T02:18:06.667Z,14.73
2018-08-30T02:20:34.680Z,14.70
2018-08-30T02:23:02.713Z,14.62
2018-08-30T02:25:30.798Z,14.61
2018-08-30T02:27:58.840Z,14.60
2018-08-30T02:30:26.997Z,14.63
2018-08-30T02:32:55.349Z,14.74
2018-08-30T02:35:23.498Z,14.66
2018-08-30T02:37:51.730Z,14.60
2018-08-30T02:40:19.797Z,14.64
2018-08-30T02:42:47.958Z,14.58
2018-08-30T02:45:16.104Z,14.55
2018-08-30T02:47:44.189Z,14.53
2018-08-30T02:50:12.212Z,14.51
2018-08-30T02:52:40.248Z,14.46
2018-08-30T02:55:08.457Z,14.49
2018-08-30T02:57:36.457Z,14.43
2018-08-30T03:00:04.601Z,14.44
2018-08-30T03:02:32.831Z,14.45
2018-08-30T03:05:00.855Z,14.44
2018-08-30T03:07:28.884Z,14.42
2018-08-30T03:09:56.981Z,14.39
2018-08-30T03:12:25.252Z,14.39
2018-08-30T03:15:06.927Z,14.36
2018-08-30T03:17:35.213Z,14.40
2018-08-30T03:20:03.989Z,14.39
2018-08-30T03:22:32.205Z,14.31
2018-08-30T03:25:00.423Z,14.22
2018-08-30T03:27:28.611Z,14.17
2018-08-30T03:29:56.682Z,14.28
2018-08-30T03:32:24.878Z,14.24
2018-08-30T03:34:53.060Z,14.21
2018-08-30T03:37:21.162Z,14.12
2018-08-30T03:39:49.284Z,14.04
2018-08-30T03:42:17.349Z,14.01
2018-08-30T03:44:45.406Z,14.14
2018-08-30T03:47:13.600Z,14.05
2018-08-30T03:49:41.728Z,14.07
2018-08-30T03:52:10.396Z,14.12
2018-08-30T03:54:38.585Z,14.12
2018-08-30T03:57:06.715Z,14.02
2018-08-30T03:59:34.742Z,14.01
2018-08-30T04:02:03.450Z,14.05
2018-08-30T04:04:31.560Z,14.25
2018-08-30T04:06:59.789Z,14.27
2018-08-30T04:09:28.009Z,14.25
2018-08-30T04:11:56.024Z,14.37
2018-08-30T04:14:24.071Z,14.55
2018-08-30T04:16:52.300Z,14.87
2018-08-30T04:19:20.264Z,15.28
2018-08-30T04:21:48.483Z,15.68
2018-08-30T04:24:16.608Z,16.07
2018-08-30T04:26:44.570Z,16.47
2018-08-30T04:29:12.757Z,17.13
2018-08-30T04:31:40.804Z,17.62
2018-08-30T04:34:08.962Z,17.95
2018-08-30T04:36:37.156Z,18.32
2018-08-30T04:39:07.639Z,18.94
2018-08-30T04:41:36.118Z,19.26
2018-08-30T04:44:04.643Z,19.71
2018-08-30T04:46:32.750Z,19.92
2018-08-30T04:49:01.351Z,20.08
2018-08-30T04:51:29.666Z,20.02
2018-08-30T04:53:58.042Z,19.68
2018-08-30T04:56:26.368Z,19.40
2018-08-30T04:58:54.556Z,19.52
2018-08-30T05:01:22.701Z,19.75
2018-08-30T05:03:51.324Z,20.05
2018-08-30T05:06:19.725Z,20.06
2018-08-30T05:08:47.734Z,20.34
2018-08-30T05:11:16.354Z,20.36
2018-08-30T05:13:45.426Z,20.28
2018-08-30T05:16:14.314Z,20.08
2018-08-30T05:18:43.100Z,20.27
2018-08-30T05:21:12.142Z,20.36
2018-08-30T05:23:40.776Z,20.49
2018-08-30T05:26:09.400Z,20.38
2018-08-30T05:28:37.604Z,20.45
2018-08-30T05:31:05.999Z,20.48
2018-08-30T05:33:34.258Z,20.33
2018-08-30T05:36:02.521Z,20.24
2018-08-30T05:38:31.060Z,20.19
2018-08-30T05:40:59.220Z,20.24
2018-08-30T05:43:27.477Z,20.32
2018-08-30T05:45:55.672Z,20.35
2018-08-30T05:48:23.781Z,20.18
2018-08-30T05:50:52.143Z,20.14
2018-08-30T05:53:20.326Z,20.29
2018-08-30T05:55:48.864Z,20.59
2018-08-30T05:58:17.210Z,20.49
2018-08-30T06:00:46.642Z,20.53
2018-08-30T06:03:15.142Z,20.93
2018-08-30T06:05:44.017Z,21.58
2018-08-30T06:08:12.453Z,22.07
2018-08-30T06:10:40.609Z,21.89
2018-08-30T06:13:08.939Z,21.56
2018-08-30T06:15:37.095Z,21.66
2018-08-30T06:18:05.317Z,21.96
2018-08-30T06:20:33.458Z,21.73
2018-08-30T06:23:01.660Z,21.64
2018-08-30T06:25:29.730Z,21.44
2018-08-30T06:27:57.865Z,21.47
2018-08-30T06:30:26.051Z,21.31
2018-08-30T06:32:54.165Z,21.26
2018-08-30T06:35:22.396Z,20.84
2018-08-30T06:37:50.584Z,20.89
2018-08-30T06:40:18.988Z,20.81
2018-08-30T06:42:47.590Z,20.73
2018-08-30T06:45:15.862Z,20.90
2018-08-30T06:47:44.058Z,21.24
2018-08-30T06:50:12.212Z,21.16
2018-08-30T06:52:40.332Z,21.74
2018-08-30T06:55:08.518Z,21.66
2018-08-30T06:57:36.560Z,21.87
2018-08-30T07:00:05.073Z,22.23
2018-08-30T07:02:33.410Z,21.90
2018-08-30T07:05:01.820Z,21.78
2018-08-30T07:07:30.080Z,21.63
2018-08-30T07:09:58.194Z,21.27
2018-08-30T07:12:26.512Z,21.38
2018-08-30T07:14:54.929Z,21.38
2018-08-30T07:17:23.125Z,21.67
2018-08-30T07:19:51.430Z,22.02
2018-08-30T07:22:19.584Z,22.06
2018-08-30T07:24:47.715Z,22.24
2018-08-30T07:27:16.697Z,22.05
2018-08-30T07:29:45.356Z,22.33
2018-08-30T07:32:14.365Z,22.39
2018-08-30T07:34:42.913Z,22.65
2018-08-30T07:37:11.415Z,23.14
2018-08-30T07:39:39.672Z,23.16
2018-08-30T07:42:08.225Z,23.21
2018-08-30T07:44:36.745Z,22.92
2018-08-30T07:47:05.769Z,23.50
2018-08-30T07:49:34.036Z,23.65
2018-08-30T07:52:02.674Z,23.32
2018-08-30T07:54:31.263Z,23.84
2018-08-30T07:56:59.619Z,24.16
2018-08-30T07:59:28.073Z,24.05
2018-08-30T08:01:56.650Z,24.42
2018-08-30T08:04:25.103Z,24.44
2018-08-30T08:06:53.788Z,24.34
2018-08-30T08:09:22.130Z,24.14
2018-08-30T08:11:50.390Z,24.33
2018-08-30T08:14:18.591Z,24.24
2018-08-30T08:16:46.910Z,24.63
2018-08-30T08:19:15.546Z,24.61
2018-08-30T08:21:43.978Z,25.12
2018-08-30T08:24:12.377Z,24.81
2018-08-30T08:26:41.228Z,24.98
2018-08-30T08:29:09.899Z,25.21
2018-08-30T08:31:38.458Z,25.33
2018-08-30T08:34:06.941Z,25.54
2018-08-30T08:36:35.586Z,25.87
2018-08-30T08:39:05.808Z,25.85
2018-08-30T08:41:34.422Z,25.82
2018-08-30T08:44:02.913Z,25.53
2018-08-30T08:46:31.065Z,25.49
2018-08-30T08:48:59.252Z,25.75
2018-08-30T08:51:27.386Z,26.06
2018-08-30T08:53:55.595Z,26.60
2018-08-30T08:56:23.843Z,26.62
2018-08-30T08:58:52.430Z,26.49
2018-08-30T09:01:20.461Z,26.66
2018-08-30T09:03:49.544Z,26.71
2018-08-30T09:06:19.047Z,26.65
2018-08-30T09:08:47.417Z,26.88
2018-08-30T09:11:15.895Z,27.17
2018-08-30T09:13:44.094Z,27.25
2018-08-30T09:16:12.475Z,27.34
2018-08-30T09:18:40.834Z,27.15
2018-08-30T09:21:09.385Z,27.53
2018-08-30T09:23:37.580Z,27.87
2018-08-30T09:26:05.986Z,28.06
2018-08-30T09:28:34.126Z,27.96
2018-08-30T09:31:02.339Z,27.58
2018-08-30T09:33:30.476Z,28.11
2018-08-30T09:35:58.672Z,28.24
2018-08-30T09:38:27.100Z,28.11
2018-08-30T09:40:55.681Z,28.79
2018-08-30T09:43:23.820Z,29.15
2018-08-30T09:45:51.963Z,28.74
2018-08-30T09:48:20.163Z,28.98
2018-08-30T09:50:48.613Z,29.20
2018-08-30T09:53:16.825Z,29.62
2018-08-30T09:55:45.129Z,29.69
2018-08-30T09:58:13.301Z,29.79
2018-08-30T10:00:47.236Z,29.34
2018-08-30T10:03:15.616Z,29.32
2018-08-30T10:05:43.803Z,29.03
2018-08-30T10:08:12.121Z,28.75
2018-08-30T10:10:40.459Z,29.21
2018-08-30T10:13:08.804Z,28.54
2018-08-30T10:15:37.115Z,28.54
2018-08-30T10:18:05.299Z,28.79
2018-08-30T10:20:33.422Z,28.99
2018-08-30T10:23:01.546Z,29.17
2018-08-30T10:25:29.857Z,29.27
2018-08-30T10:27:58.342Z,29.68
2018-08-30T10:30:26.475Z,29.91
2018-08-30T10:32:54.802Z,29.97
2018-08-30T10:35:23.657Z,29.64
2018-08-30T10:37:52.157Z,29.86
2018-08-30T10:40:21.020Z,29.72
2018-08-30T10:42:49.231Z,29.67
2018-08-30T10:45:17.336Z,30.27
2018-08-30T10:47:45.683Z,30.74
2018-08-30T10:50:13.801Z,30.79
2018-08-30T10:52:42.133Z,30.13
2018-08-30T10:55:10.331Z,30.06
2018-08-30T10:57:38.855Z,29.93
2018-08-30T11:00:07.296Z,29.27
2018-08-30T11:02:35.722Z,29.25
2018-08-30T11:05:04.232Z,29.04
2018-08-30T11:07:32.799Z,29.40
2018-08-30T11:10:01.463Z,29.83
2018-08-30T11:12:29.750Z,29.77
2018-08-30T11:14:58.843Z,30.04
2018-08-30T11:17:27.297Z,30.11
2018-08-30T11:19:55.767Z,29.83
2018-08-30T11:22:23.834Z,29.87
2018-08-30T11:24:52.138Z,30.01
2018-08-30T11:27:21.030Z,30.13
2018-08-30T11:29:49.722Z,30.04
2018-08-30T11:32:18.001Z,30.04
2018-08-30T11:34:46.493Z,30.15
2018-08-30T11:37:15.898Z,30.05
2018-08-30T11:39:45.375Z,29.92
2018-08-30T11:42:13.930Z,29.86
2018-08-30T11:44:43.195Z,30.09
2018-08-30T11:47:12.447Z,30.00
2018-08-30T11:49:40.676Z,30.38
2018-08-30T11:52:09.687Z,30.36
2018-08-30T11:54:38.715Z,30.15
2018-08-30T11:57:06.924Z,29.96
2018-08-30T11:59:35.360Z,30.11
2018-08-30T12:02:03.567Z,29.89
2018-08-30T12:04:31.812Z,29.76
2018-08-30T12:07:00.026Z,29.75
2018-08-30T12:09:28.253Z,29.68
2018-08-30T12:11:56.530Z,29.57
2018-08-30T12:14:24.827Z,29.69
2018-08-30T12:16:53.093Z,29.80
2018-08-30T12:19:22.393Z,30.14
2018-08-30T12:21:50.782Z,30.08
2018-08-30T12:24:18.972Z,30.13
2018-08-30T12:26:47.775Z,30.05
2018-08-30T12:29:16.315Z,30.12
2018-08-30T12:31:44.606Z,30.26
2018-08-30T12:34:13.971Z,30.34
2018-08-30T12:36:42.527Z,30.31
2018-08-30T12:39:12.707Z,30.30
2018-08-30T12:41:41.607Z,30.33
2018-08-30T12:44:10.102Z,30.36
2018-08-30T12:46:38.747Z,30.48
2018-08-30T12:49:07.188Z,30.21
2018-08-30T12:51:35.784Z,30.12
2018-08-30T12:54:04.730Z,30.07
2018-08-30T12:56:33.109Z,30.03
2018-08-30T12:59:06.828Z,30.14
2018-08-30T13:01:35.296Z,30.19
2018-08-30T13:04:03.552Z,30.29
2018-08-30T13:06:31.861Z,30.26
2018-08-30T13:09:00.609Z,30.02
2018-08-30T13:11:28.795Z,29.85
2018-08-30T13:13:57.369Z,29.89
2018-08-30T13:16:26.211Z,29.88
2018-08-30T13:18:54.722Z,30.06
2018-08-30T13:21:23.240Z,30.08
2018-08-30T13:23:51.446Z,29.95
2018-08-30T13:26:19.669Z,29.82
2018-08-30T13:28:48.035Z,29.85
2018-08-30T13:31:16.291Z,30.00
2018-08-30T13:33:44.698Z,29.79
2018-08-30T13:36:13.145Z,29.54
2018-08-30T13:38:41.818Z,29.39
2018-08-30T13:41:09.964Z,29.61
2018-08-30T13:43:38.501Z,29.51
2018-08-30T13:46:06.769Z,29.51
2018-08-30T13:48:34.846Z,29.49
2018-08-30T13:51:03.014Z,29.47
2018-08-30T13:53:31.580Z,29.55
2018-08-30T13:56:00.130Z,29.51
2018-08-30T13:58:28.375Z,29.30
2018-08-30T14:00:56.868Z,29.22
2018-08-30T14:03:26.050Z,29.04
2018-08-30T14:05:54.121Z,28.99
2018-08-30T14:08:23.213Z,29.07
2018-08-30T14:10:51.719Z,29.08
2018-08-30T14:13:20.019Z,29.03
2018-08-30T14:15:47.917Z,28.95
2018-08-30T14:18:16.189Z,28.95
2018-08-30T14:20:44.813Z,28.81
2018-08-30T14:23:13.355Z,28.70
2018-08-30T14:25:41.591Z,28.70
2018-08-30T14:28:09.816Z,28.65
2018-08-30T14:30:38.224Z,28.64
2018-08-30T14:33:06.674Z,28.77
2018-08-30T14:35:34.988Z,28.78
2018-08-30T14:38:03.493Z,28.72
2018-08-30T14:40:32.602Z,28.39
2018-08-30T14:43:01.081Z,28.30
2018-08-30T14:45:29.323Z,28.25
2018-08-30T14:47:57.873Z,28.15
2018-08-30T14:50:26.326Z,28.02
2018-08-30T14:52:54.472Z,27.85
2018-08-30T14:55:22.606Z,27.67
2018-08-30T14:57:50.786Z,27.49
2018-08-30T15:00:19.133Z,27.37
2018-08-30T15:02:47.516Z,27.26
2018-08-30T15:05:16.128Z,27.15
2018-08-30T15:07:44.304Z,27.00
2018-08-30T15:10:12.791Z,26.95
2018-08-30T15:12:40.958Z,26.80
2018-08-30T15:15:09.120Z,26.71
2018-08-30T15:17:37.396Z,26.49
2018-08-30T15:20:06.301Z,26.39
2018-08-30T15:22:34.672Z,26.20
2018-08-30T15:25:02.803Z,26.02
2018-08-30T15:27:31.353Z,25.57
2018-08-30T15:29:59.767Z,25.40
2018-08-30T15:32:28.003Z,25.26
2018-08-30T15:34:56.269Z,25.21
2018-08-30T15:37:24.416Z,25.13
2018-08-30T15:39:52.744Z,24.99
2018-08-30T15:42:21.116Z,24.79
2018-08-30T15:44:49.387Z,24.64
2018-08-30T15:47:17.792Z,24.43
2018-08-30T15:49:46.143Z,24.20
2018-08-30T15:52:14.356Z,23.88
2018-08-30T15:54:42.509Z,23.61
2018-08-30T15:57:11.137Z,23.55
2018-08-30T15:59:40.515Z,23.50
2018-08-30T16:02:08.772Z,23.39
2018-08-30T16:04:37.235Z,23.25
2018-08-30T16:07:05.517Z,23.02
2018-08-30T16:09:33.788Z,22.90
2018-08-30T16:12:01.953Z,22.71
2018-08-30T16:14:30.434Z,22.58
2018-08-30T16:16:58.926Z,22.51
2018-08-30T16:19:27.262Z,22.45
2018-08-30T16:21:55.689Z,22.28
2018-08-30T16:24:24.161Z,22.20
2018-08-30T16:26:52.487Z,22.02
2018-08-30T16:29:21.063Z,21.92
2018-08-30T16:31:49.641Z,21.82
2018-08-30T16:34:17.849Z,21.52
2018-08-30T16:36:46.116Z,21.41
2018-08-30T16:39:14.457Z,21.36
2018-08-30T16:41:42.812Z,21.21
2018-08-30T16:44:11.106Z,21.06
2018-08-30T16:46:39.541Z,20.98
2018-08-30T16:49:08.643Z,20.95
2018-08-30T16:51:37.303Z,20.95
2018-08-30T16:54:05.527Z,20.96
2018-08-30T16:56:34.316Z,20.86
2018-08-30T16:59:03.832Z,20.81
2018-08-30T17:01:33.381Z,20.81
2018-08-30T17:04:02.846Z,20.75
2018-08-30T17:06:33.222Z,20.64
2018-08-30T17:09:02.314Z,20.67
2018-08-30T17:11:31.022Z,20.67
2018-08-30T17:13:59.480Z,20.61
2018-08-30T17:16:27.779Z,20.55
2018-08-30T17:19:01.529Z,20.51
2018-08-30T17:21:30.551Z,20.49
2018-08-30T17:23:59.043Z,20.38
2018-08-30T17:26:27.628Z,20.35
2018-08-30T17:28:56.050Z,20.27
2018-08-30T17:31:24.764Z,20.25
2018-08-30T17:33:53.978Z,20.19
2018-08-30T17:36:22.664Z,20.14
2018-08-30T17:38:51.162Z,20.07
2018-08-30T17:41:19.684Z,20.04
2018-08-30T17:43:48.136Z,19.97
2018-08-30T17:46:16.628Z,19.87
2018-08-30T17:48:45.105Z,19.81
2018-08-30T17:51:13.703Z,19.78
2018-08-30T17:53:42.178Z,19.75
2018-08-30T17:56:10.690Z,19.67
2018-08-30T17:58:39.480Z,19.63
2018-08-30T18:01:08.312Z,19.53
2018-08-30T18:03:36.606Z,19.40
2018-08-30T18:06:05.503Z,19.42
2018-08-30T18:08:34.169Z,19.37
2018-08-30T18:11:03.843Z,19.40
2018-08-30T18:13:33.108Z,19.40
2018-08-30T18:16:02.645Z,19.31
2018-08-30T18:18:32.516Z,19.22
2018-08-30T18:21:02.148Z,19.16
2018-08-30T18:23:30.937Z,19.07
2018-08-30T18:26:00.338Z,19.07
2018-08-30T18:28:29.486Z,19.03
2018-08-30T18:30:57.999Z,19.01
2018-08-30T18:33:26.496Z,19.01
2018-08-30T18:35:55.404Z,18.99
2018-08-30T18:38:25.197Z,18.96
2018-08-30T18:40:54.208Z,18.91
2018-08-30T18:43:22.682Z,18.88
2018-08-30T18:45:51.562Z,18.84
2018-08-30T18:48:19.848Z,18.82
2018-08-30T18:50:48.427Z,18.75
2018-08-30T18:53:17.132Z,18.71
2018-08-30T18:55:45.604Z,18.67
2018-08-30T18:58:14.411Z,18.65
2018-08-30T19:00:42.839Z,18.63
2018-08-30T19:03:11.517Z,18.58
2018-08-30T19:05:40.010Z,18.60
2018-08-30T19:08:08.715Z,18.56
2018-08-30T19:10:37.453Z,18.52
2018-08-30T19:13:05.928Z,18.44
2018-08-30T19:15:39.665Z,18.42
2018-08-30T19:18:13.547Z,18.37
2018-08-30T19:20:42.089Z,18.50
2018-08-30T19:23:10.340Z,18.51
2018-08-30T19:25:39.014Z,18.38
2018-08-30T19:28:07.356Z,18.27
2018-08-30T19:30:35.686Z,18.23
2018-08-30T19:33:03.974Z,18.30
2018-08-30T19:35:37.866Z,18.27
2018-08-30T19:38:06.319Z,18.17
2018-08-30T19:40:40.561Z,18.19
2018-08-30T19:43:08.856Z,18.42
2018-08-30T19:45:37.340Z,18.33
2018-08-30T19:48:05.704Z,18.28
2018-08-30T19:50:35.032Z,18.35
2018-08-30T19:53:03.629Z,18.30
2018-08-30T19:55:31.977Z,18.22
2018-08-30T19:58:00.776Z,18.16
2018-08-30T20:00:29.090Z,18.08
2018-08-30T20:03:04.379Z,18.04
2018-08-30T20:05:32.874Z,18.02
2018-08-30T20:08:01.465Z,17.98
2018-08-30T20:10:29.874Z,17.94
2018-08-30T20:12:58.388Z,17.96
2018-08-30T20:15:26.658Z,17.99
2018-08-30T20:17:54.787Z,17.96
2018-08-30T20:20:23.039Z,17.92
2018-08-30T20:22:51.238Z,17.89
2018-08-30T20:25:19.364Z,17.94
2018-08-30T20:27:47.545Z,17.88
2018-08-30T20:30:15.702Z,17.81
2018-08-30T20:32:44.134Z,17.76
2018-08-30T20:35:12.281Z,17.75
2018-08-30T20:37:40.488Z,17.75
2018-08-30T20:40:09.176Z,17.77
2018-08-30T20:42:37.256Z,17.74
2018-08-30T20:45:05.454Z,17.75
2018-08-30T20:47:33.698Z,17.71
2018-08-30T20:50:01.846Z,17.72
2018-08-30T20:52:30.055Z,17.71
2018-08-30T20:54:58.191Z,17.65
2018-08-30T20:57:26.890Z,17.65
2018-08-30T20:59:55.259Z,17.60
2018-08-30T21:02:23.378Z,17.55
2018-08-30T21:04:51.428Z,17.52
2018-08-30T21:07:19.755Z,17.55
2018-08-30T21:09:47.864Z,17.51
2018-08-30T21:12:15.959Z,17.53
2018-08-30T21:14:44.092Z,17.52
2018-08-30T21:17:12.102Z,17.49
2018-08-30T21:19:40.879Z,17.48
2018-08-30T21:22:09.243Z,17.46
2018-08-30T21:24:37.692Z,17.45
2018-08-30T21:27:06.056Z,17.40
2018-08-30T21:29:34.113Z,17.34
2018-08-30T21:32:02.373Z,17.28
2018-08-30T21:34:30.444Z,17.27
2018-08-30T21:36:58.551Z,17.27
2018-08-30T21:39:26.609Z,17.27
2018-08-30T21:41:54.755Z,17.20
2018-08-30T21:44:22.875Z,17.15
2018-08-30T21:46:51.065Z,17.15
2018-08-30T21:49:19.340Z,17.13
2018-08-30T21:51:47.740Z,17.11
2018-08-30T21:54:15.979Z,17.08
2018-08-30T21:56:44.088Z,17.05
2018-08-30T21:59:12.239Z,16.98
2018-08-30T22:01:40.689Z,17.00
2018-08-30T22:04:08.952Z,16.89
2018-08-30T22:06:38.629Z,16.90
2018-08-30T22:09:09.459Z,16.88
2018-08-30T22:11:39.679Z,16.85
2018-08-30T22:14:08.271Z,16.82
2018-08-30T22:16:36.636Z,16.77
2018-08-30T22:19:04.847Z,16.74
2018-08-30T22:21:32.976Z,16.68
2018-08-30T22:24:01.050Z,16.69
2018-08-30T22:26:29.384Z,16.68
2018-08-30T22:28:57.738Z,16.67
2018-08-30T22:31:25.996Z,16.67
2018-08-30T22:33:54.167Z,16.79
2018-08-30T22:36:22.189Z,16.71
2018-08-30T22:38:50.354Z,16.64
2018-08-30T22:41:18.420Z,16.62
2018-08-30T22:43:46.626Z,16.57
2018-08-30T22:46:14.782Z,16.52
2018-08-30T22:48:42.912Z,16.53
2018-08-30T22:51:11.110Z,16.46
2018-08-30T22:53:39.351Z,16.44
2018-08-30T22:56:07.618Z,16.38
2018-08-30T22:58:35.811Z,16.36
2018-08-30T23:01:04.104Z,16.35
2018-08-30T23:03:32.270Z,16.35
2018-08-30T23:06:00.584Z,16.27
2018-08-30T23:08:28.808Z,16.26
2018-08-30T23:10:56.961Z,16.24
2018-08-30T23:13:25.331Z,16.18
2018-08-30T23:15:53.566Z,16.17
2018-08-30T23:18:21.638Z,16.13
2018-08-30T23:20:49.721Z,16.11
2018-08-30T23:23:17.991Z,16.08
2018-08-30T23:25:46.401Z,16.11
2018-08-30T23:28:14.481Z,16.09
2018-08-30T23:30:42.992Z,16.00
2018-08-30T23:33:11.101Z,16.03
2018-08-30T23:35:39.427Z,16.02
2018-08-30T23:38:07.999Z,15.98
2018-08-30T23:40:36.604Z,15.93
2018-08-30T23:43:04.821Z,15.88
2018-08-30T23:45:32.876Z,15.81
2018-08-30T23:48:00.941Z,15.80
2018-08-30T23:50:29.162Z,15.86
2018-08-30T23:52:57.339Z,15.89
2018-08-30T23:55:25.340Z,15.84
2018-08-30T23:58:04.399Z,15.86
